Decoded Metar for KMLS (MILES CITY in MT, USA) (IATA:MLS) | Meteo·Mobile Aviation Weather
aviador You're here:

KMLS Decoded Metar

MILES CITY in MT, USA
Report Time2019-01-20 20:53:00
UTC Time2019-01-20 21:28:12
Flight Rules vfr VFR
WindVRB at 04 kt
Visibility9999 m
Phenomena:N/A
Clouds:Broken 110 Hf
Expected CloudBase > 2,800 ft AGL from Temp-Dew spread
Ceiling11,000 ft
Temp04°C (ISA -6)
Dew Point-3°C (61% RH)
AAT0.2°C
QNH1012 hPa
Density Alt2,041 ft
Elevation2,628 ft
Report Wrong Elevation
Raw Report
KMLS 202053Z AUTO VRB04KT 10SM BKN110 04/M03 A2988 RMK AO2 SLP144
T00391028 58032=

Extra information for KMLS:More info

Metar Taf Metar & Taf Last 4 Metars F.Rules Stats Wind Profile Meteogram Temp Stats Airport Information Weather charts Add Link Nearby VenuesMetar ALERT Operation Metar Decoded Social comments

AIRNAV info for KMLS